createdAt,value
2019-05-26T00:00:12.013Z,13.40
2019-05-26T00:02:41.603Z,13.30
2019-05-26T00:05:11.386Z,13.30
2019-05-26T00:07:40.721Z,13.20
2019-05-26T00:10:10.667Z,13.20
2019-05-26T00:12:40.256Z,13.20
2019-05-26T00:15:09.948Z,13.10
2019-05-26T00:17:39.348Z,13.20
2019-05-26T00:20:09.492Z,13.10
2019-05-26T00:22:38.840Z,13.10
2019-05-26T00:25:08.751Z,13.10
2019-05-26T00:27:38.401Z,13.00
2019-05-26T00:30:09.469Z,13.00
2019-05-26T00:32:39.000Z,13.00
2019-05-26T00:35:08.943Z,13.00
2019-05-26T00:37:48.977Z,12.90
2019-05-26T00:40:10.799Z,12.90
2019-05-26T00:42:40.217Z,12.80
2019-05-26T00:45:10.161Z,12.70
2019-05-26T00:47:39.738Z,12.70
2019-05-26T00:50:09.917Z,12.60
2019-05-26T00:52:39.351Z,12.60
2019-05-26T00:55:09.373Z,12.50
2019-05-26T00:57:38.879Z,12.50
2019-05-26T01:00:12.059Z,12.40
2019-05-26T01:02:41.402Z,12.40
2019-05-26T01:05:12.199Z,12.30
2019-05-26T01:07:41.813Z,12.30
2019-05-26T01:10:11.211Z,12.20
2019-05-26T01:12:40.570Z,12.10
2019-05-26T01:15:10.665Z,12.00
2019-05-26T01:17:40.020Z,11.90
2019-05-26T01:20:10.020Z,11.90
2019-05-26T01:22:40.290Z,11.80
2019-05-26T01:25:09.984Z,11.80
2019-05-26T01:27:39.305Z,11.70
2019-05-26T01:30:09.335Z,11.70
2019-05-26T01:32:38.731Z,11.60
2019-05-26T01:35:08.621Z,11.60
2019-05-26T01:37:39.708Z,11.50
2019-05-26T01:40:09.621Z,11.50
2019-05-26T01:42:38.975Z,11.40
2019-05-26T01:45:09.068Z,11.40
2019-05-26T01:47:38.422Z,11.40
2019-05-26T01:50:08.082Z,11.30
2019-05-26T01:52:37.608Z,11.30
2019-05-26T01:55:07.012Z,11.20
2019-05-26T01:57:36.533Z,11.20
2019-05-26T02:00:07.155Z,11.10
2019-05-26T02:02:37.762Z,11.10
2019-05-26T02:05:07.403Z,11.10
2019-05-26T02:07:37.685Z,11.00
2019-05-26T02:10:07.266Z,11.00
2019-05-26T02:12:36.617Z,10.90
2019-05-26T02:15:07.253Z,10.90
2019-05-26T02:17:36.723Z,10.90
2019-05-26T02:20:07.546Z,10.90
2019-05-26T02:22:36.959Z,10.80
2019-05-26T02:25:08.041Z,10.80
2019-05-26T02:27:37.354Z,10.80
2019-05-26T02:30:09.163Z,10.70
2019-05-26T02:32:38.551Z,10.70
2019-05-26T02:35:08.669Z,10.70
2019-05-26T02:37:38.237Z,10.60
2019-05-26T02:40:10.045Z,10.60
2019-05-26T02:42:40.620Z,10.60
2019-05-26T02:45:12.552Z,10.60
2019-05-26T02:47:42.193Z,10.60
2019-05-26T02:50:13.398Z,10.70
2019-05-26T02:52:42.995Z,10.60
2019-05-26T02:55:14.050Z,10.70
2019-05-26T02:57:43.510Z,10.60
2019-05-26T03:00:14.598Z,10.60
2019-05-26T03:02:44.003Z,10.60
2019-05-26T03:05:13.981Z,10.50
2019-05-26T03:07:45.982Z,10.60
2019-05-26T03:10:15.757Z,10.60
2019-05-26T03:12:47.000Z,10.50
2019-05-26T03:15:17.998Z,10.50
2019-05-26T03:17:49.901Z,10.50
2019-05-26T03:20:19.393Z,10.50
2019-05-26T03:22:49.409Z,10.50
2019-05-26T03:25:19.124Z,10.50
2019-05-26T03:27:48.438Z,10.50
2019-05-26T03:30:17.846Z,10.50
2019-05-26T03:32:47.437Z,10.50
2019-05-26T03:35:16.864Z,10.60
2019-05-26T03:37:46.194Z,10.60
2019-05-26T03:40:15.672Z,10.60
2019-05-26T03:42:44.987Z,10.60
2019-05-26T03:45:26.422Z,10.60
2019-05-26T03:47:55.758Z,10.60
2019-05-26T03:50:25.078Z,10.60
2019-05-26T03:52:54.531Z,10.60
2019-05-26T03:55:23.849Z,10.60
2019-05-26T03:57:53.187Z,10.70
2019-05-26T04:00:22.692Z,10.70
2019-05-26T04:02:52.090Z,10.80
2019-05-26T04:05:21.434Z,10.80
2019-05-26T04:07:51.040Z,10.80
2019-05-26T04:10:20.727Z,10.80
2019-05-26T04:12:50.038Z,10.80
2019-05-26T04:15:19.567Z,10.90
2019-05-26T04:17:48.897Z,10.90
2019-05-26T04:20:18.415Z,10.90
2019-05-26T04:22:47.884Z,11.00
2019-05-26T04:25:17.218Z,11.00
2019-05-26T04:27:46.542Z,11.00
2019-05-26T04:30:16.173Z,11.10
2019-05-26T04:32:45.509Z,11.10
2019-05-26T04:35:14.899Z,11.20
2019-05-26T04:37:44.483Z,11.20
2019-05-26T04:40:26.520Z,11.30
2019-05-26T04:42:45.131Z,11.40
2019-05-26T04:45:14.619Z,11.50
2019-05-26T04:47:43.950Z,11.70
2019-05-26T04:50:13.969Z,11.90
2019-05-26T04:53:02.039Z,12.00
2019-05-26T04:55:14.571Z,12.10
2019-05-26T04:57:44.107Z,12.20
2019-05-26T05:00:13.882Z,12.20
2019-05-26T05:02:43.205Z,12.30
2019-05-26T05:05:13.448Z,12.40
2019-05-26T05:07:42.846Z,12.50
2019-05-26T05:10:12.244Z,12.80
2019-05-26T05:12:41.744Z,13.10
2019-05-26T05:15:11.411Z,13.20
2019-05-26T05:17:40.721Z,13.20
2019-05-26T05:20:10.493Z,13.10
2019-05-26T05:22:40.374Z,13.00
2019-05-26T05:25:14.593Z,12.90
2019-05-26T05:27:41.035Z,12.90
2019-05-26T05:30:11.208Z,12.80
2019-05-26T05:32:41.235Z,12.80
2019-05-26T05:35:11.616Z,13.00
2019-05-26T05:37:40.950Z,13.40
2019-05-26T05:40:10.657Z,13.80
2019-05-26T05:42:40.219Z,14.30
2019-05-26T05:45:10.169Z,14.60
2019-05-26T05:47:39.518Z,15.00
2019-05-26T05:50:13.755Z,15.30
2019-05-26T05:52:43.100Z,15.70
2019-05-26T05:55:12.785Z,16.00
2019-05-26T05:57:42.227Z,16.10
2019-05-26T06:00:11.846Z,15.90
2019-05-26T06:02:41.194Z,15.80
2019-05-26T06:05:10.750Z,15.90
2019-05-26T06:07:40.202Z,15.90
2019-05-26T06:10:10.024Z,15.90
2019-05-26T06:12:39.461Z,16.30
2019-05-26T06:15:10.809Z,16.30
2019-05-26T06:17:40.282Z,16.40
2019-05-26T06:20:10.928Z,16.60
2019-05-26T06:22:40.398Z,16.70
2019-05-26T06:25:10.786Z,16.70
2019-05-26T06:27:41.390Z,16.70
2019-05-26T06:30:12.849Z,16.60
2019-05-26T06:32:42.298Z,16.20
2019-05-26T06:35:11.892Z,15.80
2019-05-26T06:37:41.234Z,15.50
2019-05-26T06:40:11.546Z,15.30
2019-05-26T06:42:40.864Z,15.20
2019-05-26T06:45:10.559Z,15.40
2019-05-26T06:47:40.168Z,15.70
2019-05-26T06:50:10.022Z,16.30
2019-05-26T06:52:39.361Z,16.50
2019-05-26T06:55:10.007Z,16.10
2019-05-26T06:57:39.475Z,16.00
2019-05-26T07:00:09.241Z,16.20
2019-05-26T07:02:38.779Z,16.50
2019-05-26T07:05:08.539Z,16.90
2019-05-26T07:07:37.882Z,16.80
2019-05-26T07:10:07.704Z,17.00
2019-05-26T07:12:37.301Z,17.40
2019-05-26T07:15:08.085Z,18.00
2019-05-26T07:17:37.816Z,18.20
2019-05-26T07:20:07.926Z,18.00
2019-05-26T07:22:37.279Z,17.90
2019-05-26T07:25:08.674Z,18.20
2019-05-26T07:27:38.032Z,18.50
2019-05-26T07:30:07.975Z,18.40
2019-05-26T07:32:37.420Z,18.60
2019-05-26T07:35:07.460Z,18.60
2019-05-26T07:37:36.852Z,18.40
2019-05-26T07:40:07.243Z,18.20
2019-05-26T07:42:36.568Z,17.90
2019-05-26T07:45:06.954Z,17.70
2019-05-26T07:47:36.418Z,17.50
2019-05-26T07:50:07.294Z,17.40
2019-05-26T07:52:37.936Z,17.20
2019-05-26T07:55:07.674Z,17.30
2019-05-26T07:57:37.308Z,17.30
2019-05-26T08:00:09.201Z,17.50
2019-05-26T08:02:39.092Z,17.70
2019-05-26T08:05:08.929Z,17.70
2019-05-26T08:07:38.247Z,17.80
2019-05-26T08:10:08.975Z,17.70
2019-05-26T08:12:39.150Z,17.70
2019-05-26T08:15:09.262Z,17.70
2019-05-26T08:17:38.589Z,17.70
2019-05-26T08:20:09.901Z,17.80
2019-05-26T08:22:39.380Z,17.90
2019-05-26T08:25:08.993Z,17.80
2019-05-26T08:27:38.504Z,17.80
2019-05-26T08:30:08.554Z,17.70
2019-05-26T08:32:37.989Z,17.60
2019-05-26T08:35:08.201Z,17.60
2019-05-26T08:37:37.532Z,17.60
2019-05-26T08:40:19.579Z,17.60
2019-05-26T08:42:50.470Z,17.70
2019-05-26T08:45:22.718Z,17.70
2019-05-26T08:47:52.877Z,17.70
2019-05-26T08:50:22.470Z,17.80
2019-05-26T08:52:52.112Z,17.90
2019-05-26T08:55:21.884Z,18.00
2019-05-26T08:57:51.338Z,18.10
2019-05-26T09:00:23.667Z,18.00
2019-05-26T09:02:53.053Z,18.10
2019-05-26T09:05:22.531Z,18.40
2019-05-26T09:07:52.081Z,18.50
2019-05-26T09:10:21.647Z,18.30
2019-05-26T09:13:00.865Z,18.00
2019-05-26T09:15:22.315Z,17.90
2019-05-26T09:17:51.634Z,17.90
2019-05-26T09:20:21.607Z,18.00
2019-05-26T09:22:51.283Z,18.20
2019-05-26T09:25:20.776Z,18.20
2019-05-26T09:27:50.166Z,18.20
2019-05-26T09:30:19.933Z,18.30
2019-05-26T09:32:49.285Z,18.40
2019-05-26T09:35:18.677Z,18.60
2019-05-26T09:37:48.204Z,18.80
2019-05-26T09:40:17.836Z,19.00
2019-05-26T09:42:48.243Z,19.20
2019-05-26T09:45:18.088Z,19.20
2019-05-26T09:47:47.703Z,19.40
2019-05-26T09:50:17.386Z,19.40
2019-05-26T09:52:46.867Z,19.40
2019-05-26T09:55:16.625Z,19.50
2019-05-26T09:57:46.072Z,19.60
2019-05-26T10:00:16.526Z,19.80
2019-05-26T10:02:45.987Z,20.20
2019-05-26T10:05:15.585Z,20.30
2019-05-26T10:07:45.167Z,20.50
2019-05-26T10:10:14.726Z,20.30
2019-05-26T10:12:44.141Z,19.80
2019-05-26T10:15:15.060Z,19.70
2019-05-26T10:17:44.387Z,19.60
2019-05-26T10:20:15.255Z,19.60
2019-05-26T10:22:44.830Z,19.50
2019-05-26T10:25:15.078Z,19.80
2019-05-26T10:27:44.415Z,19.70
2019-05-26T10:30:14.975Z,19.90
2019-05-26T10:32:44.294Z,20.10
2019-05-26T10:35:14.277Z,20.30
2019-05-26T10:37:43.909Z,20.40
2019-05-26T10:40:14.589Z,20.60
2019-05-26T10:42:44.072Z,20.60
2019-05-26T10:45:13.891Z,20.80
2019-05-26T10:47:43.203Z,20.80
2019-05-26T10:50:13.108Z,20.90
2019-05-26T10:52:42.680Z,20.70
2019-05-26T10:55:13.678Z,20.60
2019-05-26T10:57:43.348Z,20.50
2019-05-26T11:00:13.237Z,20.50
2019-05-26T11:02:42.654Z,20.70
2019-05-26T11:05:13.718Z,20.90
2019-05-26T11:07:43.070Z,21.00
2019-05-26T11:10:13.122Z,21.40
2019-05-26T11:12:42.716Z,21.40
2019-05-26T11:15:12.575Z,21.20
2019-05-26T11:17:41.984Z,21.00
2019-05-26T11:20:12.358Z,20.90
2019-05-26T11:22:41.744Z,20.70
2019-05-26T11:25:11.725Z,20.70
2019-05-26T11:27:41.296Z,20.90
2019-05-26T11:30:12.132Z,21.20
2019-05-26T11:32:41.509Z,21.20
2019-05-26T11:35:12.352Z,21.00
2019-05-26T11:37:41.673Z,21.00
2019-05-26T11:40:11.817Z,21.20
2019-05-26T11:42:44.618Z,21.60
2019-05-26T11:45:14.025Z,21.70
2019-05-26T11:47:43.723Z,21.80
2019-05-26T11:50:14.838Z,21.70
2019-05-26T11:52:46.361Z,21.80
2019-05-26T11:55:16.314Z,22.00
2019-05-26T11:57:45.630Z,21.90
2019-05-26T12:00:17.109Z,22.10
2019-05-26T12:02:46.857Z,22.00
2019-05-26T12:05:17.927Z,22.10
2019-05-26T12:07:47.714Z,22.30
2019-05-26T12:10:17.248Z,22.30
2019-05-26T12:12:46.636Z,22.40
2019-05-26T12:15:16.943Z,22.80
2019-05-26T12:17:46.287Z,22.80
2019-05-26T12:20:16.134Z,22.60
2019-05-26T12:22:45.605Z,22.30
2019-05-26T12:25:15.390Z,22.30
2019-05-26T12:27:45.018Z,22.40
2019-05-26T12:30:15.094Z,22.50
2019-05-26T12:32:44.460Z,22.40
2019-05-26T12:35:14.073Z,22.20
2019-05-26T12:37:43.600Z,22.00
2019-05-26T12:40:13.447Z,21.80
2019-05-26T12:42:42.765Z,21.60
2019-05-26T12:45:12.679Z,21.60
2019-05-26T12:47:42.079Z,21.80
2019-05-26T12:50:12.005Z,22.00
2019-05-26T12:52:41.565Z,21.90
2019-05-26T12:55:13.278Z,21.90
2019-05-26T12:57:42.828Z,21.90
2019-05-26T13:00:12.490Z,21.70
2019-05-26T13:02:41.986Z,21.50
2019-05-26T13:05:11.754Z,21.40
2019-05-26T13:07:41.059Z,21.30
2019-05-26T13:10:11.694Z,21.30
2019-05-26T13:12:41.251Z,21.30
2019-05-26T13:15:11.712Z,21.10
2019-05-26T13:17:41.106Z,20.90
2019-05-26T13:20:12.541Z,20.80
2019-05-26T13:22:41.949Z,20.80
2019-05-26T13:25:12.097Z,20.70
2019-05-26T13:27:41.698Z,20.70
2019-05-26T13:30:14.028Z,20.60
2019-05-26T13:32:43.581Z,20.60
2019-05-26T13:35:13.449Z,20.60
2019-05-26T13:37:42.782Z,20.50
2019-05-26T13:40:14.714Z,20.50
2019-05-26T13:42:44.133Z,20.60
2019-05-26T13:45:22.467Z,20.50
2019-05-26T13:47:45.411Z,20.50
2019-05-26T13:50:16.477Z,20.50
2019-05-26T13:52:46.064Z,20.50
2019-05-26T13:55:16.934Z,20.50
2019-05-26T13:57:49.249Z,20.70
2019-05-26T14:00:18.368Z,21.10
2019-05-26T14:02:47.921Z,21.40
2019-05-26T14:05:19.233Z,21.60
2019-05-26T14:07:48.645Z,21.90
2019-05-26T14:10:29.996Z,22.20
2019-05-26T14:12:59.407Z,22.40
2019-05-26T14:15:37.478Z,22.80
2019-05-26T14:18:00.588Z,22.90
2019-05-26T14:20:34.849Z,22.90
2019-05-26T14:23:05.359Z,22.90
2019-05-26T14:25:35.150Z,22.50
2019-05-26T14:28:05.521Z,22.20
2019-05-26T14:30:35.548Z,22.10
2019-05-26T14:33:05.446Z,22.10
2019-05-26T14:35:34.790Z,22.20
2019-05-26T14:38:04.599Z,22.10
2019-05-26T14:40:33.979Z,22.10
2019-05-26T14:43:04.209Z,22.10
2019-05-26T14:45:33.903Z,21.90
2019-05-26T14:48:04.392Z,21.80
2019-05-26T14:50:33.848Z,21.70
2019-05-26T14:53:03.314Z,21.60
2019-05-26T14:55:32.662Z,21.60
2019-05-26T14:58:15.097Z,21.50
2019-05-26T15:00:33.221Z,21.50
2019-05-26T15:03:02.612Z,21.40
2019-05-26T15:05:31.947Z,21.40
2019-05-26T15:08:01.380Z,21.30
2019-05-26T15:10:30.689Z,21.20
2019-05-26T15:13:00.017Z,21.10
2019-05-26T15:15:29.599Z,21.10
2019-05-26T15:17:58.998Z,21.10
2019-05-26T15:20:28.401Z,21.00
2019-05-26T15:22:57.878Z,21.00
2019-05-26T15:25:27.189Z,21.00
2019-05-26T15:27:56.489Z,21.00
2019-05-26T15:30:26.037Z,20.90
2019-05-26T15:32:55.412Z,20.80
2019-05-26T15:35:24.737Z,20.70
2019-05-26T15:37:54.276Z,20.70
2019-05-26T15:40:23.712Z,20.60
2019-05-26T15:42:53.154Z,20.60
2019-05-26T15:45:22.684Z,20.60
2019-05-26T15:47:52.192Z,20.60
2019-05-26T15:50:21.804Z,20.60
2019-05-26T15:52:51.655Z,20.60
2019-05-26T15:55:21.974Z,20.70
2019-05-26T15:57:51.485Z,20.70
2019-05-26T16:00:21.994Z,20.70
2019-05-26T16:02:51.432Z,20.70
2019-05-26T16:05:21.875Z,20.70
2019-05-26T16:07:51.409Z,20.80
2019-05-26T16:10:20.866Z,21.10
2019-05-26T16:12:50.196Z,21.40
2019-05-26T16:15:19.826Z,21.70
2019-05-26T16:17:50.197Z,22.00
2019-05-26T16:20:20.189Z,22.10
2019-05-26T16:22:49.557Z,22.20
2019-05-26T16:25:18.959Z,22.00
2019-05-26T16:27:48.672Z,21.90
2019-05-26T16:30:18.452Z,21.70
2019-05-26T16:32:47.911Z,21.60
2019-05-26T16:35:17.425Z,21.50
2019-05-26T16:37:46.836Z,21.50
2019-05-26T16:40:16.621Z,21.50
2019-05-26T16:42:46.121Z,21.50
2019-05-26T16:45:15.703Z,21.50
2019-05-26T16:47:45.095Z,21.50
2019-05-26T16:50:14.679Z,21.50
2019-05-26T16:52:44.008Z,21.50
2019-05-26T16:55:13.730Z,21.40
2019-05-26T16:57:43.142Z,21.40
2019-05-26T17:00:12.855Z,21.40
2019-05-26T17:02:42.222Z,21.50
2019-05-26T17:05:12.081Z,21.30
2019-05-26T17:07:41.444Z,21.20
2019-05-26T17:10:11.436Z,21.10
2019-05-26T17:12:41.014Z,21.10
2019-05-26T17:15:10.741Z,21.10
2019-05-26T17:17:40.365Z,21.00
2019-05-26T17:20:10.711Z,21.00
2019-05-26T17:22:40.229Z,21.00
2019-05-26T17:25:10.171Z,21.00
2019-05-26T17:27:39.797Z,20.90
2019-05-26T17:30:09.837Z,20.90
2019-05-26T17:32:39.205Z,20.80
2019-05-26T17:35:09.235Z,20.80
2019-05-26T17:37:38.600Z,20.90
2019-05-26T17:40:08.069Z,20.80
2019-05-26T17:42:37.538Z,20.60
2019-05-26T17:45:08.193Z,20.60
2019-05-26T17:47:37.606Z,20.50
2019-05-26T17:50:08.860Z,20.40
2019-05-26T17:52:38.592Z,20.40
2019-05-26T17:55:09.617Z,20.30
2019-05-26T17:57:39.094Z,20.20
2019-05-26T18:00:14.519Z,20.10
2019-05-26T18:02:43.971Z,20.10
2019-05-26T18:05:13.701Z,20.00
2019-05-26T18:07:43.098Z,19.90
2019-05-26T18:10:13.163Z,19.80
2019-05-26T18:12:42.497Z,19.70
2019-05-26T18:15:12.207Z,19.60
2019-05-26T18:17:47.262Z,19.50
2019-05-26T18:20:13.498Z,19.40
2019-05-26T18:22:43.196Z,19.20
2019-05-26T18:25:12.729Z,19.10
2019-05-26T18:27:42.069Z,19.00
2019-05-26T18:30:11.812Z,18.90
2019-05-26T18:32:42.100Z,18.90
2019-05-26T18:35:11.643Z,18.80
2019-05-26T18:37:41.297Z,18.80
2019-05-26T18:40:11.151Z,18.70
2019-05-26T18:42:40.878Z,18.70
2019-05-26T18:45:12.064Z,18.70
2019-05-26T18:47:41.404Z,18.70
2019-05-26T18:50:11.349Z,18.70
2019-05-26T18:52:41.010Z,18.70
2019-05-26T18:55:10.560Z,18.70
2019-05-26T18:57:39.902Z,18.70
2019-05-26T19:00:11.229Z,18.60
2019-05-26T19:02:41.523Z,18.50
2019-05-26T19:05:11.185Z,18.50
2019-05-26T19:07:40.834Z,18.30
2019-05-26T19:10:10.456Z,18.20
2019-05-26T19:12:41.285Z,18.10
2019-05-26T19:15:11.315Z,18.10
2019-05-26T19:17:40.663Z,17.90
2019-05-26T19:20:16.788Z,17.90
2019-05-26T19:22:43.326Z,17.80
2019-05-26T19:25:12.890Z,17.70
2019-05-26T19:27:42.215Z,17.70
2019-05-26T19:30:12.267Z,17.60
2019-05-26T19:32:41.609Z,17.60
2019-05-26T19:35:11.520Z,17.50
2019-05-26T19:37:41.180Z,17.50
2019-05-26T19:40:10.971Z,17.40
2019-05-26T19:42:40.395Z,17.30
2019-05-26T19:45:10.124Z,17.20
2019-05-26T19:47:39.453Z,17.20
2019-05-26T19:50:09.222Z,17.20
2019-05-26T19:52:40.237Z,17.10
2019-05-26T19:55:09.729Z,17.10
2019-05-26T19:57:39.121Z,17.10
2019-05-26T20:00:13.584Z,17.00
2019-05-26T20:02:42.961Z,17.00
2019-05-26T20:05:12.625Z,16.90
2019-05-26T20:07:42.137Z,16.80
2019-05-26T20:10:13.260Z,16.70
2019-05-26T20:12:42.898Z,16.70
2019-05-26T20:15:12.466Z,16.60
2019-05-26T20:17:41.867Z,16.50
2019-05-26T20:20:11.899Z,16.40
2019-05-26T20:22:41.289Z,16.40
2019-05-26T20:25:11.053Z,16.30
2019-05-26T20:27:40.465Z,16.30
2019-05-26T20:30:10.024Z,16.20
2019-05-26T20:32:39.410Z,16.20
2019-05-26T20:35:09.380Z,16.20
2019-05-26T20:37:38.763Z,16.10
2019-05-26T20:40:08.803Z,16.10
2019-05-26T20:42:39.412Z,16.10
2019-05-26T20:45:09.320Z,16.10
2019-05-26T20:47:38.753Z,16.00
2019-05-26T20:50:08.849Z,15.90
2019-05-26T20:52:38.359Z,15.80
2019-05-26T20:55:08.225Z,15.80
2019-05-26T20:57:37.746Z,15.70
2019-05-26T21:00:10.286Z,15.70
2019-05-26T21:02:40.963Z,15.70
2019-05-26T21:05:10.703Z,15.60
2019-05-26T21:07:40.089Z,15.60
2019-05-26T21:10:10.710Z,15.50
2019-05-26T21:12:40.097Z,15.50
2019-05-26T21:15:09.849Z,15.40
2019-05-26T21:17:39.533Z,15.40
2019-05-26T21:20:09.289Z,15.40
2019-05-26T21:22:38.598Z,15.30
2019-05-26T21:25:08.537Z,15.30
2019-05-26T21:27:37.926Z,15.20
2019-05-26T21:30:07.886Z,15.30
2019-05-26T21:32:37.422Z,15.30
2019-05-26T21:35:08.031Z,15.30
2019-05-26T21:37:38.468Z,15.30
2019-05-26T21:40:08.850Z,15.30
2019-05-26T21:42:38.173Z,15.40
2019-05-26T21:45:08.603Z,15.40
2019-05-26T21:47:37.942Z,15.40
2019-05-26T21:50:09.075Z,15.50
2019-05-26T21:52:39.723Z,15.50
2019-05-26T21:55:11.125Z,15.50
2019-05-26T21:57:40.462Z,15.50
2019-05-26T22:00:13.517Z,15.60
2019-05-26T22:02:44.893Z,15.50
2019-05-26T22:05:14.670Z,15.50
2019-05-26T22:07:43.970Z,15.60
2019-05-26T22:10:13.593Z,15.60
2019-05-26T22:12:43.087Z,15.60
2019-05-26T22:15:12.994Z,15.60
2019-05-26T22:17:42.434Z,15.60
2019-05-26T22:20:12.589Z,15.60
2019-05-26T22:22:41.910Z,15.60
2019-05-26T22:25:11.256Z,15.60
2019-05-26T22:27:40.751Z,15.60
2019-05-26T22:30:10.614Z,15.60
2019-05-26T22:32:39.946Z,15.60
2019-05-26T22:35:09.474Z,15.60
2019-05-26T22:37:39.610Z,15.60
2019-05-26T22:40:09.508Z,15.60
2019-05-26T22:42:39.089Z,15.70
2019-05-26T22:45:10.785Z,15.70
2019-05-26T22:47:40.351Z,15.70
2019-05-26T22:50:10.514Z,15.70
2019-05-26T22:52:39.820Z,15.60
2019-05-26T22:55:09.588Z,15.60
2019-05-26T22:57:38.912Z,15.70
2019-05-26T23:00:09.441Z,15.60
2019-05-26T23:02:38.937Z,15.70
2019-05-26T23:05:08.622Z,15.70
2019-05-26T23:07:37.937Z,15.70
2019-05-26T23:10:08.465Z,15.70
2019-05-26T23:12:38.559Z,15.70
2019-05-26T23:15:09.493Z,15.70
2019-05-26T23:17:39.059Z,15.60
2019-05-26T23:20:08.713Z,15.60
2019-05-26T23:22:38.145Z,15.50
2019-05-26T23:25:07.785Z,15.40
2019-05-26T23:27:37.092Z,15.30
2019-05-26T23:30:08.641Z,15.20
2019-05-26T23:32:37.969Z,15.00
2019-05-26T23:35:07.935Z,14.90
2019-05-26T23:37:37.441Z,14.70
2019-05-26T23:40:10.094Z,14.60
2019-05-26T23:42:39.639Z,14.50
2019-05-26T23:45:09.700Z,14.40
2019-05-26T23:47:39.032Z,14.30
2019-05-26T23:50:10.066Z,14.20
2019-05-26T23:52:39.384Z,14.10
2019-05-26T23:55:09.061Z,14.00
2019-05-26T23:57:39.637Z,14.00
